Strona główna
METAR-TAF:

METAR-TAF

Lotnisko :

Wapakoneta, Ohio, Stany Zjednoczone

Szerokość geograficzna: 40-29-37N, Długość geograficzna: 084-17-53W, wysokość: 278 m

Aktualna obserwacja pogody

Raport powstał 17 minut temu, godzina 19:36 UTC
Wiatr 7 kt od południowo-południowy zachód
Temperatura 32°C
Wilgotność 56%
Ciśnienie 1012 hPa
Widzialność: 16.1 km
Rozproszone chmury na wysokości 4600 ft
Przerywane chmury na wysokości 6500 ft

METAR: KAXV 211936Z AUTO 20007KT 10SM SCT046 BKN065 32/22 A2989 RMK AO2

czas: 15:53 (19:53 UTC)


TAF: brakujący

Obserwacja i prognoza pogody dla ponad 4000 lotnisk (raport METAR i TAF).

Dostępne stacje oznaczono żółtymi i czerwonymi punktami na mapie.

Najedź kursorem aby zobaczyć nazwę stacji.

Kliknij aby zobaczyć obserwacje i prognozy pogody.

Aby zmienić mapę: kliknij na zielony przycisk z czarnym krzyżykiem, aby powiększyć; na zielony przycisk z myślnikiem, aby pomniejszyć; na zielone strzałki, aby przejść do map sąsiednich.


METAR-TAF: